sensor_id;sensor_type;location;lat;lon;timestamp;temperature;humidity
78788;DHT22;68131;52.508;5.502;2023-06-26T00:00:13;24.80;61.50
78788;DHT22;68131;52.508;5.502;2023-06-26T00:02:42;24.80;61.50
78788;DHT22;68131;52.508;5.502;2023-06-26T00:05:11;24.80;61.60
78788;DHT22;68131;52.508;5.502;2023-06-26T00:07:40;24.70;61.50
78788;DHT22;68131;52.508;5.502;2023-06-26T00:10:10;24.70;61.40
78788;DHT22;68131;52.508;5.502;2023-06-26T00:12:44;24.70;61.30
78788;DHT22;68131;52.508;5.502;2023-06-26T00:15:14;24.80;61.30
78788;DHT22;68131;52.508;5.502;2023-06-26T00:17:47;24.80;61.20
78788;DHT22;68131;52.508;5.502;2023-06-26T00:20:16;24.80;61.20
78788;DHT22;68131;52.508;5.502;2023-06-26T00:22:46;24.80;61.10
78788;DHT22;68131;52.508;5.502;2023-06-26T00:25:16;24.80;61.10
78788;DHT22;68131;52.508;5.502;2023-06-26T00:27:48;24.80;61.10
78788;DHT22;68131;52.508;5.502;2023-06-26T00:30:18;24.80;61.00
78788;DHT22;68131;52.508;5.502;2023-06-26T00:32:47;24.90;61.00
78788;DHT22;68131;52.508;5.502;2023-06-26T00:35:17;24.90;60.90
78788;DHT22;68131;52.508;5.502;2023-06-26T00:37:46;24.90;61.00
78788;DHT22;68131;52.508;5.502;2023-06-26T00:40:16;24.90;60.90
78788;DHT22;68131;52.508;5.502;2023-06-26T00:42:48;24.90;61.10
78788;DHT22;68131;52.508;5.502;2023-06-26T00:45:17;24.90;61.00
78788;DHT22;68131;52.508;5.502;2023-06-26T00:47:47;24.80;61.10
78788;DHT22;68131;52.508;5.502;2023-06-26T00:50:20;24.80;61.10
78788;DHT22;68131;52.508;5.502;2023-06-26T00:52:49;24.80;61.20
78788;DHT22;68131;52.508;5.502;2023-06-26T00:55:20;24.70;61.20
78788;DHT22;68131;52.508;5.502;2023-06-26T00:57:52;24.70;61.20
78788;DHT22;68131;52.508;5.502;2023-06-26T01:00:21;24.70;61.20
78788;DHT22;68131;52.508;5.502;2023-06-26T01:02:51;24.70;61.10
78788;DHT22;68131;52.508;5.502;2023-06-26T01:05:24;24.70;61.10
78788;DHT22;68131;52.508;5.502;2023-06-26T01:07:57;24.70;61.10
78788;DHT22;68131;52.508;5.502;2023-06-26T01:10:28;24.70;61.00
78788;DHT22;68131;52.508;5.502;2023-06-26T01:12:59;24.70;61.00
78788;DHT22;68131;52.508;5.502;2023-06-26T01:15:29;24.70;60.90
78788;DHT22;68131;52.508;5.502;2023-06-26T01:17:58;24.70;60.90
78788;DHT22;68131;52.508;5.502;2023-06-26T01:20:30;24.70;60.90
78788;DHT22;68131;52.508;5.502;2023-06-26T01:23:07;24.70;60.90
78788;DHT22;68131;52.508;5.502;2023-06-26T01:25:52;24.70;60.80
78788;DHT22;68131;52.508;5.502;2023-06-26T01:28:35;24.70;60.90
78788;DHT22;68131;52.508;5.502;2023-06-26T01:31:09;24.70;60.80
78788;DHT22;68131;52.508;5.502;2023-06-26T01:33:40;24.70;60.80
78788;DHT22;68131;52.508;5.502;2023-06-26T01:36:10;24.70;60.80
78788;DHT22;68131;52.508;5.502;2023-06-26T01:38:39;24.70;60.80
78788;DHT22;68131;52.508;5.502;2023-06-26T01:41:08;24.70;60.90
78788;DHT22;68131;52.508;5.502;2023-06-26T01:43:49;24.70;60.90
78788;DHT22;68131;52.508;5.502;2023-06-26T01:46:27;24.70;60.70
78788;DHT22;68131;52.508;5.502;2023-06-26T01:49:03;24.80;60.50
78788;DHT22;68131;52.508;5.502;2023-06-26T01:51:41;24.80;60.30
78788;DHT22;68131;52.508;5.502;2023-06-26T01:54:14;24.80;60.30
78788;DHT22;68131;52.508;5.502;2023-06-26T01:56:46;24.80;60.50
78788;DHT22;68131;52.508;5.502;2023-06-26T01:59:26;24.80;60.60
78788;DHT22;68131;52.508;5.502;2023-06-26T02:02:00;24.80;60.80
78788;DHT22;68131;52.508;5.502;2023-06-26T02:04:29;24.70;60.90
78788;DHT22;68131;52.508;5.502;2023-06-26T02:06:59;24.70;61.00
78788;DHT22;68131;52.508;5.502;2023-06-26T02:09:30;24.60;61.30
78788;DHT22;68131;52.508;5.502;2023-06-26T02:11:59;24.60;61.20
78788;DHT22;68131;52.508;5.502;2023-06-26T02:14:31;24.60;61.40
78788;DHT22;68131;52.508;5.502;2023-06-26T02:17:00;24.50;61.60
78788;DHT22;68131;52.508;5.502;2023-06-26T02:19:29;24.50;61.70
78788;DHT22;68131;52.508;5.502;2023-06-26T02:21:59;24.40;61.80
78788;DHT22;68131;52.508;5.502;2023-06-26T02:24:29;24.40;61.80
78788;DHT22;68131;52.508;5.502;2023-06-26T02:27:00;24.40;61.90
78788;DHT22;68131;52.508;5.502;2023-06-26T02:29:34;24.30;62.10
78788;DHT22;68131;52.508;5.502;2023-06-26T02:32:10;24.30;62.20
78788;DHT22;68131;52.508;5.502;2023-06-26T02:34:39;24.30;62.30
78788;DHT22;68131;52.508;5.502;2023-06-26T02:37:08;24.20;62.40
78788;DHT22;68131;52.508;5.502;2023-06-26T02:39:41;24.20;62.70
78788;DHT22;68131;52.508;5.502;2023-06-26T02:42:13;24.10;62.80
78788;DHT22;68131;52.508;5.502;2023-06-26T02:44:45;24.00;63.10
78788;DHT22;68131;52.508;5.502;2023-06-26T02:47:14;23.90;63.10
78788;DHT22;68131;52.508;5.502;2023-06-26T02:49:44;23.90;63.30
78788;DHT22;68131;52.508;5.502;2023-06-26T02:52:14;23.80;63.50
78788;DHT22;68131;52.508;5.502;2023-06-26T02:54:43;23.80;63.50
78788;DHT22;68131;52.508;5.502;2023-06-26T02:57:13;23.70;63.50
78788;DHT22;68131;52.508;5.502;2023-06-26T02:59:46;23.70;63.60
78788;DHT22;68131;52.508;5.502;2023-06-26T03:02:15;23.70;63.70
78788;DHT22;68131;52.508;5.502;2023-06-26T03:04:46;23.70;63.90
78788;DHT22;68131;52.508;5.502;2023-06-26T03:07:16;23.60;64.00
78788;DHT22;68131;52.508;5.502;2023-06-26T03:09:45;23.50;64.20
78788;DHT22;68131;52.508;5.502;2023-06-26T03:12:15;23.50;64.20
78788;DHT22;68131;52.508;5.502;2023-06-26T03:14:48;23.50;64.20
78788;DHT22;68131;52.508;5.502;2023-06-26T03:17:18;23.40;64.30
78788;DHT22;68131;52.508;5.502;2023-06-26T03:19:50;23.40;64.50
78788;DHT22;68131;52.508;5.502;2023-06-26T03:22:28;23.40;64.60
78788;DHT22;68131;52.508;5.502;2023-06-26T03:24:57;23.40;64.50
78788;DHT22;68131;52.508;5.502;2023-06-26T03:27:26;23.40;64.60
78788;DHT22;68131;52.508;5.502;2023-06-26T03:29:58;23.40;64.70
78788;DHT22;68131;52.508;5.502;2023-06-26T03:32:30;23.30;64.60
78788;DHT22;68131;52.508;5.502;2023-06-26T03:35:00;23.30;64.60
78788;DHT22;68131;52.508;5.502;2023-06-26T03:37:30;23.20;64.80
78788;DHT22;68131;52.508;5.502;2023-06-26T03:39:59;23.20;64.80
78788;DHT22;68131;52.508;5.502;2023-06-26T03:42:30;23.20;64.70
78788;DHT22;68131;52.508;5.502;2023-06-26T03:45:03;23.20;64.80
78788;DHT22;68131;52.508;5.502;2023-06-26T03:47:33;23.20;64.90
78788;DHT22;68131;52.508;5.502;2023-06-26T03:50:03;23.20;64.80
78788;DHT22;68131;52.508;5.502;2023-06-26T03:52:33;23.10;64.90
78788;DHT22;68131;52.508;5.502;2023-06-26T03:55:02;23.10;65.10
78788;DHT22;68131;52.508;5.502;2023-06-26T03:57:32;23.10;65.10
78788;DHT22;68131;52.508;5.502;2023-06-26T04:00:05;23.00;65.10
78788;DHT22;68131;52.508;5.502;2023-06-26T04:02:40;23.00;65.10
78788;DHT22;68131;52.508;5.502;2023-06-26T04:05:16;23.00;65.10
78788;DHT22;68131;52.508;5.502;2023-06-26T04:07:48;23.00;65.10
78788;DHT22;68131;52.508;5.502;2023-06-26T04:10:21;23.00;65.10
78788;DHT22;68131;52.508;5.502;2023-06-26T04:12:50;23.00;65.40
78788;DHT22;68131;52.508;5.502;2023-06-26T04:15:24;22.90;65.30
78788;DHT22;68131;52.508;5.502;2023-06-26T04:17:53;22.90;65.40
78788;DHT22;68131;52.508;5.502;2023-06-26T04:20:25;22.90;65.40
78788;DHT22;68131;52.508;5.502;2023-06-26T04:22:57;22.90;65.30
78788;DHT22;68131;52.508;5.502;2023-06-26T04:25:28;23.00;65.30
78788;DHT22;68131;52.508;5.502;2023-06-26T04:27:57;23.00;65.20
78788;DHT22;68131;52.508;5.502;2023-06-26T04:30:29;23.10;65.20
78788;DHT22;68131;52.508;5.502;2023-06-26T04:32:58;23.10;65.20
78788;DHT22;68131;52.508;5.502;2023-06-26T04:35:30;23.20;65.20
78788;DHT22;68131;52.508;5.502;2023-06-26T04:38:04;23.30;64.90
78788;DHT22;68131;52.508;5.502;2023-06-26T04:40:35;23.40;64.60
78788;DHT22;68131;52.508;5.502;2023-06-26T04:43:04;23.40;64.30
78788;DHT22;68131;52.508;5.502;2023-06-26T04:45:38;23.50;64.10
78788;DHT22;68131;52.508;5.502;2023-06-26T04:48:08;23.50;63.80
78788;DHT22;68131;52.508;5.502;2023-06-26T04:50:37;23.50;63.60
78788;DHT22;68131;52.508;5.502;2023-06-26T04:53:09;23.50;63.00
78788;DHT22;68131;52.508;5.502;2023-06-26T04:55:38;23.60;62.40
78788;DHT22;68131;52.508;5.502;2023-06-26T04:58:07;23.60;62.00
78788;DHT22;68131;52.508;5.502;2023-06-26T05:00:41;23.70;61.40
78788;DHT22;68131;52.508;5.502;2023-06-26T05:03:11;23.80;61.10
78788;DHT22;68131;52.508;5.502;2023-06-26T05:05:41;24.10;60.70
78788;DHT22;68131;52.508;5.502;2023-06-26T05:08:13;24.20;60.30
78788;DHT22;68131;52.508;5.502;2023-06-26T05:10:43;24.40;59.90
78788;DHT22;68131;52.508;5.502;2023-06-26T05:13:13;24.60;59.60
78788;DHT22;68131;52.508;5.502;2023-06-26T05:15:46;24.80;59.00
78788;DHT22;68131;52.508;5.502;2023-06-26T05:18:15;25.00;58.40
78788;DHT22;68131;52.508;5.502;2023-06-26T05:20:45;25.20;57.70
78788;DHT22;68131;52.508;5.502;2023-06-26T05:23:16;25.20;57.60
78788;DHT22;68131;52.508;5.502;2023-06-26T05:25:46;25.10;57.80
78788;DHT22;68131;52.508;5.502;2023-06-26T05:28:16;25.30;57.70
78788;DHT22;68131;52.508;5.502;2023-06-26T05:30:49;25.50;57.60
78788;DHT22;68131;52.508;5.502;2023-06-26T05:33:19;25.70;57.40
78788;DHT22;68131;52.508;5.502;2023-06-26T05:35:52;26.00;57.10
78788;DHT22;68131;52.508;5.502;2023-06-26T05:38:22;26.20;56.70
78788;DHT22;68131;52.508;5.502;2023-06-26T05:40:52;26.40;56.60
78788;DHT22;68131;52.508;5.502;2023-06-26T05:43:21;26.40;56.50
78788;DHT22;68131;52.508;5.502;2023-06-26T05:45:53;26.60;56.40
78788;DHT22;68131;52.508;5.502;2023-06-26T05:48:23;26.80;56.10
78788;DHT22;68131;52.508;5.502;2023-06-26T05:50:55;27.00;55.80
78788;DHT22;68131;52.508;5.502;2023-06-26T05:53:28;27.20;55.50
78788;DHT22;68131;52.508;5.502;2023-06-26T05:55:58;27.30;55.30
78788;DHT22;68131;52.508;5.502;2023-06-26T05:58:30;27.40;54.70
78788;DHT22;68131;52.508;5.502;2023-06-26T06:01:05;27.20;54.80
78788;DHT22;68131;52.508;5.502;2023-06-26T06:03:39;27.30;54.40
78788;DHT22;68131;52.508;5.502;2023-06-26T06:06:09;27.20;54.30
78788;DHT22;68131;52.508;5.502;2023-06-26T06:08:38;27.10;54.50
78788;DHT22;68131;52.508;5.502;2023-06-26T06:11:07;27.10;54.50
78788;DHT22;68131;52.508;5.502;2023-06-26T06:13:36;27.30;54.80
78788;DHT22;68131;52.508;5.502;2023-06-26T06:16:08;27.20;54.80
78788;DHT22;68131;52.508;5.502;2023-06-26T06:18:37;27.40;54.70
78788;DHT22;68131;52.508;5.502;2023-06-26T06:21:09;27.50;54.20
78788;DHT22;68131;52.508;5.502;2023-06-26T06:23:38;27.30;54.30
78788;DHT22;68131;52.508;5.502;2023-06-26T06:26:07;27.20;54.30
78788;DHT22;68131;52.508;5.502;2023-06-26T06:28:37;27.30;54.60
78788;DHT22;68131;52.508;5.502;2023-06-26T06:31:09;27.50;54.50
78788;DHT22;68131;52.508;5.502;2023-06-26T06:33:41;27.70;54.20
78788;DHT22;68131;52.508;5.502;2023-06-26T06:36:11;27.70;53.50
78788;DHT22;68131;52.508;5.502;2023-06-26T06:38:42;27.50;53.90
78788;DHT22;68131;52.508;5.502;2023-06-26T06:41:12;27.60;54.20
78788;DHT22;68131;52.508;5.502;2023-06-26T06:43:42;27.60;54.30
78788;DHT22;68131;52.508;5.502;2023-06-26T06:46:14;27.50;54.50
78788;DHT22;68131;52.508;5.502;2023-06-26T06:48:43;27.40;54.60
78788;DHT22;68131;52.508;5.502;2023-06-26T06:51:15;27.50;54.70
78788;DHT22;68131;52.508;5.502;2023-06-26T06:53:45;27.40;54.70
78788;DHT22;68131;52.508;5.502;2023-06-26T06:56:14;27.20;55.00
78788;DHT22;68131;52.508;5.502;2023-06-26T06:58:43;26.90;55.20
78788;DHT22;68131;52.508;5.502;2023-06-26T07:01:15;26.90;55.30
78788;DHT22;68131;52.508;5.502;2023-06-26T07:03:45;27.10;55.40
78788;DHT22;68131;52.508;5.502;2023-06-26T07:06:14;27.20;55.00
78788;DHT22;68131;52.508;5.502;2023-06-26T07:08:43;27.20;55.10
78788;DHT22;68131;52.508;5.502;2023-06-26T07:11:12;27.30;55.30
78788;DHT22;68131;52.508;5.502;2023-06-26T07:13:41;27.50;55.10
78788;DHT22;68131;52.508;5.502;2023-06-26T07:16:16;27.60;54.90
78788;DHT22;68131;52.508;5.502;2023-06-26T07:18:45;27.70;54.80
78788;DHT22;68131;52.508;5.502;2023-06-26T07:21:16;27.70;54.70
78788;DHT22;68131;52.508;5.502;2023-06-26T07:23:45;27.70;54.40
78788;DHT22;68131;52.508;5.502;2023-06-26T07:26:15;27.70;54.10
78788;DHT22;68131;52.508;5.502;2023-06-26T07:28:47;27.40;54.40
78788;DHT22;68131;52.508;5.502;2023-06-26T07:31:18;27.20;54.80
78788;DHT22;68131;52.508;5.502;2023-06-26T07:33:48;27.00;55.30
78788;DHT22;68131;52.508;5.502;2023-06-26T07:36:17;27.00;55.40
78788;DHT22;68131;52.508;5.502;2023-06-26T07:38:46;27.00;55.40
78788;DHT22;68131;52.508;5.502;2023-06-26T07:41:15;27.00;55.50
78788;DHT22;68131;52.508;5.502;2023-06-26T07:43:44;26.80;55.70
78788;DHT22;68131;52.508;5.502;2023-06-26T07:46:14;26.70;55.80
78788;DHT22;68131;52.508;5.502;2023-06-26T07:48:45;26.50;56.00
78788;DHT22;68131;52.508;5.502;2023-06-26T07:51:17;26.40;56.10
78788;DHT22;68131;52.508;5.502;2023-06-26T07:53:46;26.20;56.40
78788;DHT22;68131;52.508;5.502;2023-06-26T07:56:16;26.10;56.60
78788;DHT22;68131;52.508;5.502;2023-06-26T07:58:45;25.90;56.90
78788;DHT22;68131;52.508;5.502;2023-06-26T08:01:15;26.10;57.00
78788;DHT22;68131;52.508;5.502;2023-06-26T08:03:47;26.40;56.70
78788;DHT22;68131;52.508;5.502;2023-06-26T08:06:16;26.70;56.30
78788;DHT22;68131;52.508;5.502;2023-06-26T08:08:45;26.90;55.90
78788;DHT22;68131;52.508;5.502;2023-06-26T08:11:15;27.00;55.80
78788;DHT22;68131;52.508;5.502;2023-06-26T08:13:44;27.20;55.70
78788;DHT22;68131;52.508;5.502;2023-06-26T08:16:13;27.50;55.00
78788;DHT22;68131;52.508;5.502;2023-06-26T08:18:42;27.40;55.10
78788;DHT22;68131;52.508;5.502;2023-06-26T08:21:14;27.60;54.80
78788;DHT22;68131;52.508;5.502;2023-06-26T08:23:43;27.60;54.70
78788;DHT22;68131;52.508;5.502;2023-06-26T08:26:13;27.50;55.00
78788;DHT22;68131;52.508;5.502;2023-06-26T08:28:43;27.50;55.10
78788;DHT22;68131;52.508;5.502;2023-06-26T08:31:12;27.60;54.90
78788;DHT22;68131;52.508;5.502;2023-06-26T08:33:41;27.70;54.90
78788;DHT22;68131;52.508;5.502;2023-06-26T08:36:16;27.80;54.80
78788;DHT22;68131;52.508;5.502;2023-06-26T08:38:45;27.70;54.90
78788;DHT22;68131;52.508;5.502;2023-06-26T08:41:15;27.90;54.60
78788;DHT22;68131;52.508;5.502;2023-06-26T08:43:44;27.80;54.50
78788;DHT22;68131;52.508;5.502;2023-06-26T08:46:14;27.50;54.70
78788;DHT22;68131;52.508;5.502;2023-06-26T08:48:48;27.20;55.30
78788;DHT22;68131;52.508;5.502;2023-06-26T08:51:22;27.10;55.50
78788;DHT22;68131;52.508;5.502;2023-06-26T08:53:56;27.00;55.50
78788;DHT22;68131;52.508;5.502;2023-06-26T08:56:28;27.00;55.40
78788;DHT22;68131;52.508;5.502;2023-06-26T08:59:00;26.90;55.40
78788;DHT22;68131;52.508;5.502;2023-06-26T09:01:30;27.00;55.40
78788;DHT22;68131;52.508;5.502;2023-06-26T09:04:00;27.10;55.30
78788;DHT22;68131;52.508;5.502;2023-06-26T09:06:32;27.20;55.00
78788;DHT22;68131;52.508;5.502;2023-06-26T09:09:02;27.30;54.80
78788;DHT22;68131;52.508;5.502;2023-06-26T09:11:31;27.20;54.80
78788;DHT22;68131;52.508;5.502;2023-06-26T09:14:01;27.00;54.70
78788;DHT22;68131;52.508;5.502;2023-06-26T09:16:32;26.80;55.00
78788;DHT22;68131;52.508;5.502;2023-06-26T09:19:01;26.80;55.00
78788;DHT22;68131;52.508;5.502;2023-06-26T09:21:33;27.00;54.90
78788;DHT22;68131;52.508;5.502;2023-06-26T09:24:02;27.10;54.50
78788;DHT22;68131;52.508;5.502;2023-06-26T09:26:32;27.20;54.50
78788;DHT22;68131;52.508;5.502;2023-06-26T09:29:02;27.50;54.20
78788;DHT22;68131;52.508;5.502;2023-06-26T09:31:32;27.60;54.00
78788;DHT22;68131;52.508;5.502;2023-06-26T09:34:02;27.70;53.50
78788;DHT22;68131;52.508;5.502;2023-06-26T09:36:35;27.50;53.60
78788;DHT22;68131;52.508;5.502;2023-06-26T09:39:06;27.30;53.80
78788;DHT22;68131;52.508;5.502;2023-06-26T09:41:37;27.30;53.90
78788;DHT22;68131;52.508;5.502;2023-06-26T09:44:07;27.40;53.80
78788;DHT22;68131;52.508;5.502;2023-06-26T09:46:39;27.60;53.30
78788;DHT22;68131;52.508;5.502;2023-06-26T09:49:10;27.50;53.20
78788;DHT22;68131;52.508;5.502;2023-06-26T09:51:42;27.60;53.20
78788;DHT22;68131;52.508;5.502;2023-06-26T09:54:12;27.60;52.50
78788;DHT22;68131;52.508;5.502;2023-06-26T09:56:41;27.50;52.70
78788;DHT22;68131;52.508;5.502;2023-06-26T09:59:10;27.40;52.90
78788;DHT22;68131;52.508;5.502;2023-06-26T10:01:40;27.40;53.00
78788;DHT22;68131;52.508;5.502;2023-06-26T10:04:10;27.30;53.10
78788;DHT22;68131;52.508;5.502;2023-06-26T10:06:46;27.20;53.20
78788;DHT22;68131;52.508;5.502;2023-06-26T10:09:17;27.20;53.10
78788;DHT22;68131;52.508;5.502;2023-06-26T10:11:49;27.20;52.90
78788;DHT22;68131;52.508;5.502;2023-06-26T10:14:21;27.20;52.90
78788;DHT22;68131;52.508;5.502;2023-06-26T10:16:51;27.20;52.70
78788;DHT22;68131;52.508;5.502;2023-06-26T10:19:22;27.10;53.00
78788;DHT22;68131;52.508;5.502;2023-06-26T10:21:56;27.10;52.70
78788;DHT22;68131;52.508;5.502;2023-06-26T10:24:29;27.00;52.90
78788;DHT22;68131;52.508;5.502;2023-06-26T10:27:03;26.90;52.70
78788;DHT22;68131;52.508;5.502;2023-06-26T10:29:35;26.90;52.60
78788;DHT22;68131;52.508;5.502;2023-06-26T10:32:06;27.10;52.50
78788;DHT22;68131;52.508;5.502;2023-06-26T10:34:36;27.20;51.80
78788;DHT22;68131;52.508;5.502;2023-06-26T10:37:07;27.30;51.50
78788;DHT22;68131;52.508;5.502;2023-06-26T10:39:47;27.50;50.80
78788;DHT22;68131;52.508;5.502;2023-06-26T10:42:18;27.70;49.60
78788;DHT22;68131;52.508;5.502;2023-06-26T10:44:48;27.80;49.80
78788;DHT22;68131;52.508;5.502;2023-06-26T10:47:31;27.90;50.00
78788;DHT22;68131;52.508;5.502;2023-06-26T10:50:20;28.00;49.80
78788;DHT22;68131;52.508;5.502;2023-06-26T10:53:15;28.00;49.70
78788;DHT22;68131;52.508;5.502;2023-06-26T10:55:50;28.00;49.40
78788;DHT22;68131;52.508;5.502;2023-06-26T10:58:41;27.90;49.40
78788;DHT22;68131;52.508;5.502;2023-06-26T11:01:22;27.90;49.50
78788;DHT22;68131;52.508;5.502;2023-06-26T11:04:04;27.70;49.60
78788;DHT22;68131;52.508;5.502;2023-06-26T11:06:37;27.60;49.90
78788;DHT22;68131;52.508;5.502;2023-06-26T11:09:11;27.50;50.00
78788;DHT22;68131;52.508;5.502;2023-06-26T11:11:59;27.40;49.90
78788;DHT22;68131;52.508;5.502;2023-06-26T11:14:32;27.20;50.30
78788;DHT22;68131;52.508;5.502;2023-06-26T11:17:05;27.10;50.40
78788;DHT22;68131;52.508;5.502;2023-06-26T11:19:34;27.10;50.60
78788;DHT22;68131;52.508;5.502;2023-06-26T11:22:04;27.10;50.90
78788;DHT22;68131;52.508;5.502;2023-06-26T11:24:42;27.10;51.00
78788;DHT22;68131;52.508;5.502;2023-06-26T11:27:15;27.10;51.10
78788;DHT22;68131;52.508;5.502;2023-06-26T11:29:48;27.20;51.20
78788;DHT22;68131;52.508;5.502;2023-06-26T11:32:17;27.10;51.10
78788;DHT22;68131;52.508;5.502;2023-06-26T11:34:52;27.00;51.20
78788;DHT22;68131;52.508;5.502;2023-06-26T11:37:22;26.90;51.00
78788;DHT22;68131;52.508;5.502;2023-06-26T11:39:54;26.80;51.40
78788;DHT22;68131;52.508;5.502;2023-06-26T11:42:26;26.80;51.20
78788;DHT22;68131;52.508;5.502;2023-06-26T11:44:55;26.90;51.20
78788;DHT22;68131;52.508;5.502;2023-06-26T11:47:24;27.00;51.00
78788;DHT22;68131;52.508;5.502;2023-06-26T11:49:56;26.90;50.60
78788;DHT22;68131;52.508;5.502;2023-06-26T11:52:27;26.80;51.00
78788;DHT22;68131;52.508;5.502;2023-06-26T11:55:00;26.80;51.30
78788;DHT22;68131;52.508;5.502;2023-06-26T11:57:30;26.80;51.50
78788;DHT22;68131;52.508;5.502;2023-06-26T12:00:12;26.90;51.50
78788;DHT22;68131;52.508;5.502;2023-06-26T12:02:42;26.90;51.60
78788;DHT22;68131;52.508;5.502;2023-06-26T12:05:15;26.90;51.60
78788;DHT22;68131;52.508;5.502;2023-06-26T12:07:46;26.80;51.80
78788;DHT22;68131;52.508;5.502;2023-06-26T12:10:20;26.70;51.70
78788;DHT22;68131;52.508;5.502;2023-06-26T12:12:49;26.60;51.80
78788;DHT22;68131;52.508;5.502;2023-06-26T12:15:19;26.50;51.70
78788;DHT22;68131;52.508;5.502;2023-06-26T12:17:49;26.60;51.60
78788;DHT22;68131;52.508;5.502;2023-06-26T12:20:21;26.60;51.70
78788;DHT22;68131;52.508;5.502;2023-06-26T12:22:53;26.60;52.00
78788;DHT22;68131;52.508;5.502;2023-06-26T12:25:25;26.50;51.70
78788;DHT22;68131;52.508;5.502;2023-06-26T12:27:54;26.50;51.70
78788;DHT22;68131;52.508;5.502;2023-06-26T12:30:23;26.40;51.90
78788;DHT22;68131;52.508;5.502;2023-06-26T12:32:53;26.30;51.90
78788;DHT22;68131;52.508;5.502;2023-06-26T12:35:22;26.20;51.90
78788;DHT22;68131;52.508;5.502;2023-06-26T12:37:51;26.20;52.10
78788;DHT22;68131;52.508;5.502;2023-06-26T12:40:25;26.30;52.00
78788;DHT22;68131;52.508;5.502;2023-06-26T12:42:55;26.30;51.90
78788;DHT22;68131;52.508;5.502;2023-06-26T12:45:27;26.30;51.90
78788;DHT22;68131;52.508;5.502;2023-06-26T12:48:07;26.30;51.90
78788;DHT22;68131;52.508;5.502;2023-06-26T12:50:38;26.30;52.00
78788;DHT22;68131;52.508;5.502;2023-06-26T12:53:12;26.40;52.20
78788;DHT22;68131;52.508;5.502;2023-06-26T12:55:43;26.30;51.90
78788;DHT22;68131;52.508;5.502;2023-06-26T12:58:13;26.20;52.10
78788;DHT22;68131;52.508;5.502;2023-06-26T13:00:45;26.10;52.30
78788;DHT22;68131;52.508;5.502;2023-06-26T13:03:20;26.20;52.00
78788;DHT22;68131;52.508;5.502;2023-06-26T13:05:49;26.10;52.10
78788;DHT22;68131;52.508;5.502;2023-06-26T13:08:18;26.10;52.10
78788;DHT22;68131;52.508;5.502;2023-06-26T13:10:50;26.00;52.10
78788;DHT22;68131;52.508;5.502;2023-06-26T13:13:21;25.80;52.20
78788;DHT22;68131;52.508;5.502;2023-06-26T13:15:50;25.80;52.50
78788;DHT22;68131;52.508;5.502;2023-06-26T13:18:20;25.80;52.50
78788;DHT22;68131;52.508;5.502;2023-06-26T13:20:49;25.90;52.40
78788;DHT22;68131;52.508;5.502;2023-06-26T13:23:18;26.00;52.40
78788;DHT22;68131;52.508;5.502;2023-06-26T13:25:50;25.90;52.30
78788;DHT22;68131;52.508;5.502;2023-06-26T13:28:22;25.80;52.60
78788;DHT22;68131;52.508;5.502;2023-06-26T13:30:51;25.80;52.40
78788;DHT22;68131;52.508;5.502;2023-06-26T13:33:20;25.80;52.00
78788;DHT22;68131;52.508;5.502;2023-06-26T13:35:57;25.70;52.10
78788;DHT22;68131;52.508;5.502;2023-06-26T13:38:26;25.70;52.50
78788;DHT22;68131;52.508;5.502;2023-06-26T13:40:58;25.70;52.60
78788;DHT22;68131;52.508;5.502;2023-06-26T13:43:28;25.80;52.30
78788;DHT22;68131;52.508;5.502;2023-06-26T13:45:57;25.90;51.80
78788;DHT22;68131;52.508;5.502;2023-06-26T13:48:29;25.90;51.50
78788;DHT22;68131;52.508;5.502;2023-06-26T13:50:59;26.00;51.50
78788;DHT22;68131;52.508;5.502;2023-06-26T13:53:28;26.00;51.30
78788;DHT22;68131;52.508;5.502;2023-06-26T13:56:00;26.00;51.50
78788;DHT22;68131;52.508;5.502;2023-06-26T13:58:29;26.00;51.50
78788;DHT22;68131;52.508;5.502;2023-06-26T14:00:59;25.90;51.50
78788;DHT22;68131;52.508;5.502;2023-06-26T14:03:28;25.90;51.60
78788;DHT22;68131;52.508;5.502;2023-06-26T14:06:03;25.90;51.30
78788;DHT22;68131;52.508;5.502;2023-06-26T14:08:32;25.80;51.30
78788;DHT22;68131;52.508;5.502;2023-06-26T14:11:03;25.70;51.50
78788;DHT22;68131;52.508;5.502;2023-06-26T14:13:35;25.60;51.50
78788;DHT22;68131;52.508;5.502;2023-06-26T14:16:05;25.60;51.70
78788;DHT22;68131;52.508;5.502;2023-06-26T14:18:34;25.70;51.60
78788;DHT22;68131;52.508;5.502;2023-06-26T14:21:03;25.80;51.60
78788;DHT22;68131;52.508;5.502;2023-06-26T14:23:33;25.80;51.50
78788;DHT22;68131;52.508;5.502;2023-06-26T14:26:04;25.80;51.40
78788;DHT22;68131;52.508;5.502;2023-06-26T14:28:34;25.70;51.20
78788;DHT22;68131;52.508;5.502;2023-06-26T14:31:03;25.60;51.10
78788;DHT22;68131;52.508;5.502;2023-06-26T14:33:36;25.50;51.50
78788;DHT22;68131;52.508;5.502;2023-06-26T14:36:05;25.50;51.60
78788;DHT22;68131;52.508;5.502;2023-06-26T14:38:35;25.40;51.60
78788;DHT22;68131;52.508;5.502;2023-06-26T14:41:12;25.30;51.60
78788;DHT22;68131;52.508;5.502;2023-06-26T14:43:41;25.30;51.60
78788;DHT22;68131;52.508;5.502;2023-06-26T14:46:11;25.40;51.70
78788;DHT22;68131;52.508;5.502;2023-06-26T14:48:41;25.40;51.70
78788;DHT22;68131;52.508;5.502;2023-06-26T14:51:10;25.40;51.80
78788;DHT22;68131;52.508;5.502;2023-06-26T14:53:39;25.30;51.50
78788;DHT22;68131;52.508;5.502;2023-06-26T14:56:11;25.20;51.60
78788;DHT22;68131;52.508;5.502;2023-06-26T14:58:40;25.10;51.90
78788;DHT22;68131;52.508;5.502;2023-06-26T15:01:13;25.10;51.90
78788;DHT22;68131;52.508;5.502;2023-06-26T15:03:43;25.10;52.00
78788;DHT22;68131;52.508;5.502;2023-06-26T15:06:12;25.10;51.80
78788;DHT22;68131;52.508;5.502;2023-06-26T15:08:41;25.10;51.80
78788;DHT22;68131;52.508;5.502;2023-06-26T15:11:13;25.10;52.00
78788;DHT22;68131;52.508;5.502;2023-06-26T15:13:42;25.10;51.80
78788;DHT22;68131;52.508;5.502;2023-06-26T15:16:11;25.00;51.80
78788;DHT22;68131;52.508;5.502;2023-06-26T15:18:41;24.90;51.70
78788;DHT22;68131;52.508;5.502;2023-06-26T15:21:10;24.80;51.80
78788;DHT22;68131;52.508;5.502;2023-06-26T15:23:39;24.70;52.00
78788;DHT22;68131;52.508;5.502;2023-06-26T15:26:17;24.70;52.20
78788;DHT22;68131;52.508;5.502;2023-06-26T15:28:49;24.70;51.90
78788;DHT22;68131;52.508;5.502;2023-06-26T15:31:20;24.70;51.60
78788;DHT22;68131;52.508;5.502;2023-06-26T15:33:50;24.60;51.40
78788;DHT22;68131;52.508;5.502;2023-06-26T15:36:19;24.60;51.60
78788;DHT22;68131;52.508;5.502;2023-06-26T15:38:50;24.60;51.80
78788;DHT22;68131;52.508;5.502;2023-06-26T15:41:22;24.60;51.70
78788;DHT22;68131;52.508;5.502;2023-06-26T15:43:51;24.70;51.80
78788;DHT22;68131;52.508;5.502;2023-06-26T15:46:20;24.70;51.70
78788;DHT22;68131;52.508;5.502;2023-06-26T15:48:49;24.70;51.50
78788;DHT22;68131;52.508;5.502;2023-06-26T15:51:18;24.70;51.60
78788;DHT22;68131;52.508;5.502;2023-06-26T15:53:47;24.80;51.80